createdAt,value
2022-10-16T00:00:19.312Z,1003.76
2022-10-16T00:01:19.295Z,1003.78
2022-10-16T00:02:19.350Z,1003.77
2022-10-16T00:03:19.278Z,1003.77
2022-10-16T00:04:19.239Z,1003.77
2022-10-16T00:05:19.229Z,1003.77
2022-10-16T00:06:19.201Z,1003.77
2022-10-16T00:07:19.184Z,1003.74
2022-10-16T00:08:19.163Z,1003.75
2022-10-16T00:09:19.145Z,1003.79
2022-10-16T00:10:19.128Z,1003.79
2022-10-16T00:11:19.114Z,1003.82
2022-10-16T00:12:19.090Z,1003.79
2022-10-16T00:13:19.076Z,1003.77
2022-10-16T00:14:19.056Z,1003.78
2022-10-16T00:15:19.035Z,1003.81
2022-10-16T00:16:19.019Z,1003.80
2022-10-16T00:17:19.002Z,1003.83
2022-10-16T00:18:18.983Z,1003.83
2022-10-16T00:19:18.988Z,1003.81
2022-10-16T00:20:18.944Z,1003.83
2022-10-16T00:21:18.928Z,1003.77
2022-10-16T00:22:18.909Z,1003.81
2022-10-16T00:23:18.889Z,1003.83
2022-10-16T00:24:18.878Z,1003.84
2022-10-16T00:25:18.855Z,1003.81
2022-10-16T00:26:18.836Z,1003.79
2022-10-16T00:27:18.820Z,1003.77
2022-10-16T00:28:18.847Z,1003.80
2022-10-16T00:29:18.784Z,1003.78
2022-10-16T00:30:18.764Z,1003.76
2022-10-16T00:31:18.746Z,1003.76
2022-10-16T00:32:18.732Z,1003.78
2022-10-16T00:33:18.711Z,1003.77
2022-10-16T00:34:18.687Z,1003.83
2022-10-16T00:35:18.693Z,1003.83
2022-10-16T00:36:18.654Z,1003.81
2022-10-16T00:37:18.639Z,1003.84
2022-10-16T00:38:18.612Z,1003.82
2022-10-16T00:39:18.599Z,1003.82
2022-10-16T00:40:18.581Z,1003.79
2022-10-16T00:41:18.564Z,1003.81
2022-10-16T00:42:18.540Z,1003.79
2022-10-16T00:43:18.527Z,1003.80
2022-10-16T00:44:18.506Z,1003.79
2022-10-16T00:45:18.493Z,1003.82
2022-10-16T00:46:18.471Z,1003.80
2022-10-16T00:47:18.450Z,1003.78
2022-10-16T00:48:18.429Z,1003.82
2022-10-16T00:49:18.413Z,1003.85
2022-10-16T00:50:18.395Z,1003.87
2022-10-16T00:51:18.407Z,1003.90
2022-10-16T00:52:18.363Z,1003.93
2022-10-16T00:53:18.342Z,1003.93
2022-10-16T00:54:18.327Z,1003.89
2022-10-16T00:55:18.306Z,1003.90
2022-10-16T00:56:18.289Z,1003.92
2022-10-16T00:57:18.271Z,1003.94
2022-10-16T00:58:18.252Z,1003.95
2022-10-16T00:59:18.233Z,1003.95
2022-10-16T01:00:18.217Z,1003.93
2022-10-16T01:01:18.274Z,1003.91
2022-10-16T01:02:18.180Z,1003.90
2022-10-16T01:03:18.161Z,1003.84
2022-10-16T01:04:18.139Z,1003.85
2022-10-16T01:05:18.120Z,1003.88
2022-10-16T01:06:18.148Z,1003.80
2022-10-16T01:07:18.115Z,1003.83
2022-10-16T01:08:18.064Z,1003.82
2022-10-16T01:09:18.046Z,1003.88
2022-10-16T01:10:18.028Z,1003.85
2022-10-16T01:11:18.012Z,1003.86
2022-10-16T01:12:17.991Z,1003.89
2022-10-16T01:13:17.972Z,1003.93
2022-10-16T01:14:17.957Z,1003.91
2022-10-16T01:15:17.938Z,1003.87
2022-10-16T01:16:17.917Z,1003.87
2022-10-16T01:17:17.905Z,1003.85
2022-10-16T01:18:17.885Z,1003.86
2022-10-16T01:19:17.864Z,1003.83
2022-10-16T01:20:17.846Z,1003.85
2022-10-16T01:21:17.826Z,1003.89
2022-10-16T01:22:17.808Z,1003.84
2022-10-16T01:23:17.808Z,1003.91
2022-10-16T01:24:17.781Z,1003.86
2022-10-16T01:25:17.750Z,1003.87
2022-10-16T01:26:17.737Z,1003.84
2022-10-16T01:27:17.717Z,1003.89
2022-10-16T01:28:17.700Z,1003.85
2022-10-16T01:29:17.680Z,1003.87
2022-10-16T01:30:17.659Z,1003.88
2022-10-16T01:31:17.659Z,1003.91
2022-10-16T01:32:17.622Z,1003.85
2022-10-16T01:33:17.604Z,1003.85
2022-10-16T01:34:17.591Z,1003.80
2022-10-16T01:35:17.568Z,1003.88
2022-10-16T01:36:17.544Z,1003.91
2022-10-16T01:37:17.529Z,1003.93
2022-10-16T01:38:17.509Z,1003.93
2022-10-16T01:39:17.513Z,1003.88
2022-10-16T01:40:17.471Z,1003.89
2022-10-16T01:41:17.457Z,1003.89
2022-10-16T01:42:17.433Z,1003.85
2022-10-16T01:43:17.418Z,1003.82
2022-10-16T01:44:17.398Z,1003.82
2022-10-16T01:45:17.387Z,1003.85
2022-10-16T01:46:17.362Z,1003.87
2022-10-16T01:47:17.675Z,1003.86
2022-10-16T01:48:17.323Z,1003.86
2022-10-16T01:49:17.305Z,1003.86
2022-10-16T01:50:17.286Z,1003.86
2022-10-16T01:51:17.267Z,1003.80
2022-10-16T01:52:17.251Z,1003.82
2022-10-16T01:53:17.234Z,1003.82
2022-10-16T01:54:17.211Z,1003.81
2022-10-16T01:55:17.212Z,1003.81
2022-10-16T01:56:17.176Z,1003.76
2022-10-16T01:57:17.170Z,1003.79
2022-10-16T01:58:17.142Z,1003.78
2022-10-16T01:59:17.121Z,1003.80
2022-10-16T02:00:17.101Z,1003.78
2022-10-16T02:02:17.064Z,1003.78
2022-10-16T02:03:17.043Z,1003.76
2022-10-16T02:04:17.034Z,1003.83
2022-10-16T02:05:17.009Z,1003.84
2022-10-16T02:06:16.992Z,1003.82
2022-10-16T02:07:16.971Z,1003.88
2022-10-16T02:08:16.952Z,1003.85
2022-10-16T02:09:16.936Z,1003.87
2022-10-16T02:10:16.961Z,1003.88
2022-10-16T02:11:16.918Z,1003.91
2022-10-16T02:12:16.881Z,1003.87
2022-10-16T02:13:16.861Z,1003.88
2022-10-16T02:14:16.841Z,1003.89
2022-10-16T02:15:16.821Z,1003.86
2022-10-16T02:16:16.804Z,1003.89
2022-10-16T02:17:16.790Z,1003.90
2022-10-16T02:18:16.766Z,1003.91
2022-10-16T02:19:16.749Z,1003.92
2022-10-16T02:20:16.731Z,1003.91
2022-10-16T02:21:16.710Z,1003.90
2022-10-16T02:22:16.694Z,1003.91
2022-10-16T02:23:16.672Z,1003.92
2022-10-16T02:24:16.657Z,1003.91
2022-10-16T02:25:16.638Z,1003.95
2022-10-16T02:26:16.619Z,1003.89
2022-10-16T02:27:16.618Z,1003.89
2022-10-16T02:28:16.587Z,1003.88
2022-10-16T02:29:16.565Z,1003.91
2022-10-16T02:30:16.542Z,1003.92
2022-10-16T02:31:16.523Z,1003.97
2022-10-16T02:32:16.505Z,1004.00
2022-10-16T02:33:16.487Z,1003.97
2022-10-16T02:34:16.473Z,1003.99
2022-10-16T02:35:16.452Z,1003.99
2022-10-16T02:36:16.436Z,1004.00
2022-10-16T02:37:16.415Z,1003.96
2022-10-16T02:38:16.413Z,1003.94
2022-10-16T02:39:16.375Z,1003.92
2022-10-16T02:40:18.308Z,1003.97
2022-10-16T02:41:16.335Z,1003.98
2022-10-16T02:42:16.328Z,1003.93
2022-10-16T02:43:16.327Z,1003.98
2022-10-16T02:44:16.282Z,1003.97
2022-10-16T02:45:16.266Z,1003.97
2022-10-16T02:46:16.245Z,1003.99
2022-10-16T02:47:16.229Z,1004.01
2022-10-16T02:48:16.210Z,1004.03
2022-10-16T02:49:16.188Z,1004.04
2022-10-16T02:50:16.170Z,1004.07
2022-10-16T02:51:16.154Z,1004.05
2022-10-16T02:52:16.132Z,1004.04
2022-10-16T02:53:16.113Z,1004.06
2022-10-16T02:54:16.095Z,1004.10
2022-10-16T02:55:16.075Z,1004.13
2022-10-16T02:56:16.123Z,1004.16
2022-10-16T02:57:16.046Z,1004.15
2022-10-16T02:58:16.020Z,1004.12
2022-10-16T02:59:16.022Z,1004.09
2022-10-16T03:00:15.988Z,1004.08
2022-10-16T03:01:16.034Z,1004.07
2022-10-16T03:02:15.943Z,1004.08
2022-10-16T03:03:15.932Z,1004.03
2022-10-16T03:04:15.909Z,1004.04
2022-10-16T03:05:15.960Z,1003.99
2022-10-16T03:06:15.869Z,1003.98
2022-10-16T03:07:15.856Z,1003.96
2022-10-16T03:08:15.836Z,1003.98
2022-10-16T03:09:15.812Z,1003.95
2022-10-16T03:10:15.794Z,1003.96
2022-10-16T03:11:15.778Z,1003.98
2022-10-16T03:12:15.759Z,1003.96
2022-10-16T03:13:15.736Z,1003.97
2022-10-16T03:14:15.787Z,1003.95
2022-10-16T03:15:15.735Z,1003.95
2022-10-16T03:16:15.686Z,1003.98
2022-10-16T03:17:15.662Z,1003.94
2022-10-16T03:18:15.646Z,1003.97
2022-10-16T03:19:15.625Z,1003.97
2022-10-16T03:20:15.608Z,1003.98
2022-10-16T03:21:15.595Z,1003.98
2022-10-16T03:22:15.568Z,1004.03
2022-10-16T03:23:15.551Z,1004.03
2022-10-16T03:24:15.535Z,1004.11
2022-10-16T03:25:15.514Z,1004.09
2022-10-16T03:26:15.494Z,1004.09
2022-10-16T03:27:15.479Z,1004.08
2022-10-16T03:28:15.457Z,1004.12
2022-10-16T03:29:15.437Z,1004.12
2022-10-16T03:30:15.420Z,1004.19
2022-10-16T03:31:15.420Z,1004.21
2022-10-16T03:32:15.387Z,1004.13
2022-10-16T03:33:15.367Z,1004.16
2022-10-16T03:34:15.349Z,1004.16
2022-10-16T03:35:15.324Z,1004.13
2022-10-16T03:36:15.312Z,1004.08
2022-10-16T03:37:15.289Z,1004.05
2022-10-16T03:38:15.268Z,1004.04
2022-10-16T03:39:15.254Z,1004.05
2022-10-16T03:40:15.234Z,1004.07
2022-10-16T03:41:15.216Z,1004.08
2022-10-16T03:42:15.201Z,1004.11
2022-10-16T03:44:15.160Z,1004.08
2022-10-16T03:45:15.159Z,1004.06
2022-10-16T03:46:15.119Z,1004.07
2022-10-16T03:47:15.123Z,1004.08
2022-10-16T03:48:15.090Z,1004.02
2022-10-16T03:49:15.062Z,1004.01
2022-10-16T03:50:15.042Z,1003.99
2022-10-16T03:51:15.028Z,1003.98
2022-10-16T03:52:15.085Z,1003.97
2022-10-16T03:53:14.992Z,1003.97
2022-10-16T03:54:14.969Z,1003.97
2022-10-16T03:55:14.952Z,1003.95
2022-10-16T03:56:14.934Z,1004.00
2022-10-16T03:57:14.921Z,1003.99
2022-10-16T03:58:14.894Z,1004.02
2022-10-16T03:59:14.879Z,1003.97
2022-10-16T04:00:14.858Z,1003.97
2022-10-16T04:01:14.873Z,1004.02
2022-10-16T04:02:14.820Z,1004.07
2022-10-16T04:03:14.823Z,1004.04
2022-10-16T04:04:14.780Z,1004.09
2022-10-16T04:05:14.766Z,1004.06
2022-10-16T04:06:14.746Z,1004.08
2022-10-16T04:07:14.728Z,1004.07
2022-10-16T04:08:14.710Z,1004.11
2022-10-16T04:09:14.683Z,1004.12
2022-10-16T04:10:14.666Z,1004.08
2022-10-16T04:11:14.645Z,1004.12
2022-10-16T04:12:14.627Z,1004.15
2022-10-16T04:13:14.677Z,1004.17
2022-10-16T04:14:14.595Z,1004.17
2022-10-16T04:15:14.571Z,1004.14
2022-10-16T04:16:14.556Z,1004.14
2022-10-16T04:17:14.531Z,1004.14
2022-10-16T04:18:14.520Z,1004.15
2022-10-16T04:19:14.530Z,1004.24
2022-10-16T04:20:14.480Z,1004.26
2022-10-16T04:21:14.460Z,1004.31
2022-10-16T04:22:14.504Z,1004.33
2022-10-16T04:23:14.423Z,1004.33
2022-10-16T04:24:14.401Z,1004.37
2022-10-16T04:25:14.382Z,1004.38
2022-10-16T04:26:14.364Z,1004.44
2022-10-16T04:27:14.345Z,1004.38
2022-10-16T04:28:14.328Z,1004.36
2022-10-16T04:29:14.306Z,1004.35
2022-10-16T04:30:14.289Z,1004.34
2022-10-16T04:31:14.271Z,1004.33
2022-10-16T04:32:14.251Z,1004.34
2022-10-16T04:33:14.234Z,1004.39
2022-10-16T04:34:14.212Z,1004.36
2022-10-16T04:35:14.211Z,1004.34
2022-10-16T04:36:14.178Z,1004.38
2022-10-16T04:37:14.157Z,1004.43
2022-10-16T04:38:14.139Z,1004.43
2022-10-16T04:39:14.116Z,1004.43
2022-10-16T04:40:14.098Z,1004.45
2022-10-16T04:41:14.078Z,1004.46
2022-10-16T04:42:14.060Z,1004.48
2022-10-16T04:43:14.044Z,1004.43
2022-10-16T04:44:14.029Z,1004.49
2022-10-16T04:45:16.419Z,1004.52
2022-10-16T04:46:13.985Z,1004.52
2022-10-16T04:47:13.969Z,1004.56
2022-10-16T04:48:13.948Z,1004.47
2022-10-16T04:49:13.929Z,1004.53
2022-10-16T04:50:13.908Z,1004.54
2022-10-16T04:51:13.910Z,1004.49
2022-10-16T04:52:13.873Z,1004.52
2022-10-16T04:53:13.854Z,1004.52
2022-10-16T04:54:13.835Z,1004.58
2022-10-16T04:55:13.813Z,1004.60
2022-10-16T04:56:13.800Z,1004.52
2022-10-16T04:57:13.775Z,1004.48
2022-10-16T04:58:13.768Z,1004.47
2022-10-16T04:59:13.742Z,1004.45
2022-10-16T05:00:13.723Z,1004.41
2022-10-16T05:01:13.699Z,1004.45
2022-10-16T05:02:13.681Z,1004.51
2022-10-16T05:03:13.757Z,1004.51
2022-10-16T05:04:13.646Z,1004.51
2022-10-16T05:05:13.622Z,1004.55
2022-10-16T05:06:13.608Z,1004.51
2022-10-16T05:07:13.607Z,1004.55
2022-10-16T05:08:13.574Z,1004.59
2022-10-16T05:09:13.549Z,1004.62
2022-10-16T05:10:13.533Z,1004.63
2022-10-16T05:11:13.520Z,1004.62
2022-10-16T05:12:13.498Z,1004.61
2022-10-16T05:13:13.475Z,1004.65
2022-10-16T05:14:13.461Z,1004.64
2022-10-16T05:15:13.443Z,1004.65
2022-10-16T05:16:13.419Z,1004.70
2022-10-16T05:17:13.402Z,1004.68
2022-10-16T05:18:13.383Z,1004.65
2022-10-16T05:19:29.238Z,1004.68
2022-10-16T05:20:13.343Z,1004.72
2022-10-16T05:21:13.328Z,1004.73
2022-10-16T05:22:13.307Z,1004.78
2022-10-16T05:24:13.268Z,1004.75
2022-10-16T05:25:13.244Z,1004.72
2022-10-16T05:26:13.234Z,1004.73
2022-10-16T05:27:13.210Z,1004.77
2022-10-16T05:28:13.196Z,1004.80
2022-10-16T05:29:13.172Z,1004.80
2022-10-16T05:30:13.160Z,1004.80
2022-10-16T05:31:13.134Z,1004.80
2022-10-16T05:32:13.118Z,1004.81
2022-10-16T05:33:13.101Z,1004.77
2022-10-16T05:34:13.080Z,1004.81
2022-10-16T05:35:13.062Z,1004.83
2022-10-16T05:36:13.042Z,1004.83
2022-10-16T05:37:13.023Z,1004.83
2022-10-16T05:38:13.007Z,1004.88
2022-10-16T05:39:13.005Z,1004.90
2022-10-16T05:40:12.965Z,1004.96
2022-10-16T05:41:12.950Z,1004.99
2022-10-16T05:42:12.928Z,1005.01
2022-10-16T05:43:12.910Z,1004.92
2022-10-16T05:44:12.894Z,1004.89
2022-10-16T05:45:12.878Z,1004.95
2022-10-16T05:46:12.853Z,1004.96
2022-10-16T05:47:12.832Z,1004.97
2022-10-16T05:48:12.816Z,1005.01
2022-10-16T05:49:12.799Z,1005.01
2022-10-16T05:50:12.773Z,1004.99
2022-10-16T05:51:12.755Z,1005.01
2022-10-16T05:52:12.738Z,1005.00
2022-10-16T05:53:12.718Z,1004.99
2022-10-16T05:54:12.700Z,1005.01
2022-10-16T05:55:12.704Z,1005.06
2022-10-16T05:56:12.669Z,1005.09
2022-10-16T05:57:12.641Z,1005.14
2022-10-16T05:58:12.622Z,1005.14
2022-10-16T05:59:12.608Z,1005.22
2022-10-16T06:00:12.584Z,1005.22
2022-10-16T06:01:12.726Z,1005.20
2022-10-16T06:02:12.549Z,1005.25
2022-10-16T06:03:12.527Z,1005.26
2022-10-16T06:04:12.512Z,1005.26
2022-10-16T06:05:12.489Z,1005.27
2022-10-16T06:06:12.666Z,1005.25
2022-10-16T06:07:12.457Z,1005.30
2022-10-16T06:08:12.434Z,1005.29
2022-10-16T06:09:12.416Z,1005.27
2022-10-16T06:10:12.399Z,1005.27
2022-10-16T06:11:12.402Z,1005.28
2022-10-16T06:12:12.362Z,1005.32
2022-10-16T06:13:12.341Z,1005.34
2022-10-16T06:14:12.322Z,1005.30
2022-10-16T06:15:12.307Z,1005.30
2022-10-16T06:16:12.282Z,1005.30
2022-10-16T06:17:12.264Z,1005.34
2022-10-16T06:18:12.250Z,1005.32
2022-10-16T06:19:12.225Z,1005.35
2022-10-16T06:20:12.213Z,1005.34
2022-10-16T06:21:12.194Z,1005.36
2022-10-16T06:22:12.169Z,1005.40
2022-10-16T06:23:12.152Z,1005.44
2022-10-16T06:24:12.136Z,1005.48
2022-10-16T06:25:12.113Z,1005.52
2022-10-16T06:26:12.099Z,1005.56
2022-10-16T06:27:12.103Z,1005.64
2022-10-16T06:28:12.061Z,1005.66
2022-10-16T06:29:12.042Z,1005.66
2022-10-16T06:30:12.024Z,1005.64
2022-10-16T06:31:12.010Z,1005.69
2022-10-16T06:32:11.985Z,1005.71
2022-10-16T06:33:11.971Z,1005.68
2022-10-16T06:34:11.949Z,1005.65
2022-10-16T06:35:11.929Z,1005.71
2022-10-16T06:36:11.912Z,1005.71
2022-10-16T06:37:11.899Z,1005.73
2022-10-16T06:38:11.879Z,1005.77
2022-10-16T06:39:11.859Z,1005.78
2022-10-16T06:40:11.839Z,1005.87
2022-10-16T06:41:11.824Z,1005.87
2022-10-16T06:42:11.808Z,1005.90
2022-10-16T06:43:11.813Z,1005.86
2022-10-16T06:44:11.769Z,1005.84
2022-10-16T06:45:11.750Z,1005.85
2022-10-16T06:46:11.740Z,1005.88
2022-10-16T06:47:11.719Z,1005.93
2022-10-16T06:48:11.703Z,1005.95
2022-10-16T06:49:11.681Z,1006.01
2022-10-16T06:50:11.663Z,1006.16
2022-10-16T06:51:11.647Z,1006.16
2022-10-16T06:52:11.625Z,1006.00
2022-10-16T06:53:11.608Z,1005.97
2022-10-16T06:54:11.592Z,1006.03
2022-10-16T06:55:11.579Z,1006.03
2022-10-16T06:56:11.560Z,1006.10
2022-10-16T06:57:11.545Z,1006.23
2022-10-16T06:58:11.524Z,1006.21
2022-10-16T06:59:11.533Z,1006.27
2022-10-16T07:00:11.535Z,1006.47
2022-10-16T07:01:11.479Z,1006.53
2022-10-16T07:02:11.461Z,1006.53
2022-10-16T07:03:11.448Z,1006.54
2022-10-16T07:04:11.437Z,1006.54
2022-10-16T07:05:11.422Z,1006.58
2022-10-16T07:06:11.424Z,1006.57
2022-10-16T07:07:11.401Z,1006.50
2022-10-16T07:08:11.387Z,1006.59
2022-10-16T07:09:11.376Z,1006.55
2022-10-16T07:10:11.363Z,1006.60
2022-10-16T07:11:11.352Z,1006.56
2022-10-16T07:12:11.338Z,1006.46
2022-10-16T07:13:11.330Z,1006.59
2022-10-16T07:14:11.316Z,1006.64
2022-10-16T07:15:11.326Z,1006.56
2022-10-16T07:16:11.293Z,1006.83
2022-10-16T07:17:11.278Z,1006.62
2022-10-16T07:18:11.268Z,1006.63
2022-10-16T07:19:11.259Z,1006.53
2022-10-16T07:20:11.249Z,1006.65
2022-10-16T07:21:11.237Z,1006.49
2022-10-16T07:22:11.226Z,1006.62
2022-10-16T07:23:11.215Z,1006.80
2022-10-16T07:24:11.201Z,1006.70
2022-10-16T07:25:11.194Z,1006.81
2022-10-16T07:26:11.181Z,1006.77
2022-10-16T07:27:11.166Z,1006.74
2022-10-16T07:28:11.156Z,1007.25
2022-10-16T07:29:11.141Z,1007.27
2022-10-16T07:30:11.136Z,1007.22
2022-10-16T07:31:11.138Z,1007.09
2022-10-16T07:32:11.107Z,1007.06
2022-10-16T07:33:11.095Z,1007.07
2022-10-16T07:34:11.083Z,1007.24
2022-10-16T07:35:11.072Z,1007.48
2022-10-16T07:36:15.894Z,1007.47
2022-10-16T07:37:11.051Z,1007.47
2022-10-16T07:38:11.044Z,1007.53
2022-10-16T07:39:11.035Z,1007.61
2022-10-16T07:40:11.019Z,1007.61
2022-10-16T07:41:11.014Z,1007.62
2022-10-16T07:42:11.002Z,1007.65
2022-10-16T07:43:11.000Z,1007.65
2022-10-16T07:44:10.994Z,1007.68
2022-10-16T07:45:10.985Z,1007.67
2022-10-16T07:46:10.974Z,1007.74
2022-10-16T07:47:10.993Z,1007.71
2022-10-16T07:48:10.964Z,1007.73
2022-10-16T07:49:10.953Z,1007.74
2022-10-16T07:50:10.949Z,1007.74
2022-10-16T07:51:10.953Z,1007.74
2022-10-16T07:52:10.940Z,1007.80
2022-10-16T07:53:10.940Z,1007.85
2022-10-16T07:54:10.932Z,1007.87
2022-10-16T07:55:10.925Z,1007.83
2022-10-16T07:56:10.921Z,1007.85
2022-10-16T07:57:10.916Z,1007.89
2022-10-16T07:58:10.910Z,1007.97
2022-10-16T07:59:10.907Z,1008.02
2022-10-16T08:00:10.904Z,1008.02
2022-10-16T08:01:11.009Z,1008.06
2022-10-16T08:02:10.897Z,1008.07
2022-10-16T08:03:10.911Z,1008.12
2022-10-16T08:04:10.888Z,1008.10
2022-10-16T08:05:10.887Z,1008.14
2022-10-16T08:06:10.883Z,1008.16
2022-10-16T08:07:10.884Z,1008.20
2022-10-16T08:08:10.880Z,1008.21
2022-10-16T08:09:10.880Z,1008.25
2022-10-16T08:10:10.873Z,1007.99
2022-10-16T08:11:10.879Z,1008.25
2022-10-16T08:12:10.868Z,1008.12
2022-10-16T08:13:10.868Z,1007.98
2022-10-16T08:14:11.022Z,1008.02
2022-10-16T08:15:10.857Z,1008.11
2022-10-16T08:16:10.855Z,1008.41
2022-10-16T08:17:10.851Z,1008.40
2022-10-16T08:18:10.845Z,1008.40
2022-10-16T08:19:10.866Z,1008.39
2022-10-16T08:20:10.838Z,1008.44
2022-10-16T08:21:10.841Z,1008.42
2022-10-16T08:22:10.911Z,1008.47
2022-10-16T08:23:10.831Z,1008.41
2022-10-16T08:24:10.895Z,1008.40
2022-10-16T08:25:10.826Z,1008.47
2022-10-16T08:26:10.823Z,1008.49
2022-10-16T08:27:10.824Z,1008.47
2022-10-16T08:28:10.824Z,1008.47
2022-10-16T08:29:10.882Z,1008.55
2022-10-16T08:30:10.817Z,1008.62
2022-10-16T08:31:10.862Z,1008.65
2022-10-16T08:32:10.810Z,1008.62
2022-10-16T08:33:10.815Z,1008.56
2022-10-16T08:34:10.880Z,1008.58
2022-10-16T08:35:10.829Z,1008.53
2022-10-16T08:36:10.811Z,1008.56
2022-10-16T08:37:10.803Z,1008.58
2022-10-16T08:38:10.811Z,1008.57
2022-10-16T08:39:10.798Z,1008.54
2022-10-16T08:40:10.888Z,1008.70
2022-10-16T08:41:10.793Z,1008.61
2022-10-16T08:42:10.794Z,1008.69
2022-10-16T08:43:10.790Z,1008.65
2022-10-16T08:44:11.009Z,1008.64
2022-10-16T08:45:10.787Z,1008.63
2022-10-16T08:46:10.787Z,1008.67
2022-10-16T08:47:10.791Z,1008.54
2022-10-16T08:48:10.781Z,1008.66
2022-10-16T08:49:10.781Z,1008.72
2022-10-16T08:50:10.776Z,1008.77
2022-10-16T08:51:10.797Z,1008.73
2022-10-16T08:52:10.772Z,1008.78
2022-10-16T08:53:10.768Z,1008.82
2022-10-16T08:54:10.884Z,1008.05
2022-10-16T08:55:10.771Z,1008.88
2022-10-16T08:56:10.761Z,1008.76
2022-10-16T08:57:10.759Z,1008.82
2022-10-16T08:58:10.760Z,1008.81
2022-10-16T08:59:10.761Z,1008.90
2022-10-16T09:00:10.754Z,1008.26
2022-10-16T09:01:10.845Z,1008.84
2022-10-16T09:02:10.745Z,1008.98
2022-10-16T09:03:10.750Z,1008.96
2022-10-16T09:04:10.759Z,1008.96
2022-10-16T09:05:10.737Z,1008.99
2022-10-16T09:06:10.736Z,1008.97
2022-10-16T09:07:10.754Z,1009.00
2022-10-16T09:08:13.287Z,1008.97
2022-10-16T09:09:10.729Z,1008.95
2022-10-16T09:10:10.724Z,1009.02
2022-10-16T09:11:10.721Z,1009.07
2022-10-16T09:12:10.719Z,1009.06
2022-10-16T09:13:10.719Z,1008.35
2022-10-16T09:14:10.713Z,1009.14
2022-10-16T09:15:10.708Z,1009.04
2022-10-16T09:16:10.706Z,1009.03
2022-10-16T09:17:10.715Z,1008.98
2022-10-16T09:18:10.697Z,1008.95
2022-10-16T09:19:10.697Z,1008.99
2022-10-16T09:20:10.689Z,1008.99
2022-10-16T09:21:10.689Z,1008.69
2022-10-16T09:22:10.680Z,1008.50
2022-10-16T09:23:10.701Z,1009.15
2022-10-16T09:24:10.676Z,1009.10
2022-10-16T09:25:10.668Z,1009.21
2022-10-16T09:26:10.748Z,1009.02
2022-10-16T09:27:10.663Z,1009.09
2022-10-16T09:28:10.656Z,1009.21
2022-10-16T09:29:10.694Z,1008.45
2022-10-16T09:30:10.663Z,1009.24
2022-10-16T09:31:10.647Z,1009.28
2022-10-16T09:32:10.639Z,1009.29
2022-10-16T09:33:10.634Z,1009.27
2022-10-16T09:34:10.630Z,1009.34
2022-10-16T09:35:10.620Z,1009.29
2022-10-16T09:36:10.614Z,1009.35
2022-10-16T09:37:10.609Z,1008.48
2022-10-16T09:38:10.608Z,1009.35
2022-10-16T09:39:10.622Z,1009.41
2022-10-16T09:40:10.596Z,1009.13
2022-10-16T09:41:10.588Z,1008.89
2022-10-16T09:42:10.583Z,1009.08
2022-10-16T09:43:10.579Z,1009.19
2022-10-16T09:44:10.570Z,1009.25
2022-10-16T09:45:10.563Z,1009.45
2022-10-16T09:46:10.566Z,1009.58
2022-10-16T09:47:10.555Z,1009.59
2022-10-16T09:48:10.545Z,1009.63
2022-10-16T09:49:10.541Z,1009.70
2022-10-16T09:50:10.534Z,1009.79
2022-10-16T09:51:10.534Z,1009.83
2022-10-16T09:52:10.522Z,1009.96
2022-10-16T09:53:10.515Z,1009.97
2022-10-16T09:54:10.507Z,1008.70
2022-10-16T09:55:10.521Z,1008.69
2022-10-16T09:56:13.345Z,1008.64
2022-10-16T09:57:10.490Z,1008.70
2022-10-16T09:58:10.485Z,1008.72
2022-10-16T09:59:10.469Z,1008.75
2022-10-16T10:00:10.462Z,1008.84
2022-10-16T10:01:10.456Z,1008.76
2022-10-16T10:02:10.449Z,1008.82
2022-10-16T10:03:10.441Z,1008.86
2022-10-16T10:04:10.433Z,1008.82
2022-10-16T10:05:10.426Z,1008.74
2022-10-16T10:06:10.416Z,1008.79
2022-10-16T10:07:10.407Z,1008.78
2022-10-16T10:08:10.392Z,1008.85
2022-10-16T10:09:10.385Z,1008.83
2022-10-16T10:10:10.375Z,1008.70
2022-10-16T10:11:15.277Z,1008.90
2022-10-16T10:12:10.360Z,1008.82
2022-10-16T10:13:10.347Z,1008.78
2022-10-16T10:14:10.345Z,1008.81
2022-10-16T10:15:10.326Z,1008.80
2022-10-16T10:16:10.320Z,1008.86
2022-10-16T10:17:10.313Z,1008.79
2022-10-16T10:18:10.301Z,1008.76
2022-10-16T10:19:10.295Z,1008.94
2022-10-16T10:20:10.284Z,1008.77
2022-10-16T10:21:10.273Z,1008.84
2022-10-16T10:22:10.263Z,1008.89
2022-10-16T10:23:10.281Z,1008.86
2022-10-16T10:24:10.246Z,1008.88
2022-10-16T10:25:10.239Z,1008.83
2022-10-16T10:26:10.222Z,1008.94
2022-10-16T10:27:10.272Z,1008.84
2022-10-16T10:28:10.201Z,1008.95
2022-10-16T10:29:10.200Z,1008.98
2022-10-16T10:30:10.227Z,1008.95
2022-10-16T10:31:10.178Z,1008.95
2022-10-16T10:32:10.166Z,1009.06
2022-10-16T10:33:10.161Z,1009.08
2022-10-16T10:34:10.151Z,1008.94
2022-10-16T10:35:10.138Z,1009.00
2022-10-16T10:36:10.124Z,1008.99
2022-10-16T10:37:10.114Z,1008.95
2022-10-16T10:38:10.106Z,1009.02
2022-10-16T10:39:10.203Z,1008.95
2022-10-16T10:40:10.090Z,1008.92
2022-10-16T10:41:10.073Z,1009.06
2022-10-16T10:42:10.064Z,1009.03
2022-10-16T10:43:10.076Z,1009.07
2022-10-16T10:44:10.041Z,1009.09
2022-10-16T10:45:10.040Z,1009.02
2022-10-16T10:46:10.022Z,1008.95
2022-10-16T10:47:10.017Z,1009.03
2022-10-16T10:48:10.008Z,1009.03
2022-10-16T10:49:09.988Z,1009.02
2022-10-16T10:50:09.981Z,1009.09
2022-10-16T10:51:09.993Z,1009.05
2022-10-16T10:52:09.964Z,1009.05
2022-10-16T10:53:09.951Z,1009.02
2022-10-16T10:54:09.939Z,1009.04
2022-10-16T10:55:09.933Z,1008.97
2022-10-16T10:56:09.937Z,1008.96
2022-10-16T10:57:09.910Z,1009.08
2022-10-16T10:58:09.898Z,1008.97
2022-10-16T10:59:09.912Z,1009.00
2022-10-16T11:00:09.882Z,1009.03
2022-10-16T11:01:09.872Z,1008.99
2022-10-16T11:02:09.955Z,1009.10
2022-10-16T11:03:09.853Z,1009.10
2022-10-16T11:04:09.844Z,1009.08
2022-10-16T11:05:09.834Z,1009.07
2022-10-16T11:06:09.815Z,1009.07
2022-10-16T11:07:09.809Z,1008.91
2022-10-16T11:08:09.797Z,1009.04
2022-10-16T11:09:09.790Z,1009.03
2022-10-16T11:10:09.786Z,1009.09
2022-10-16T11:11:09.766Z,1009.08
2022-10-16T11:12:09.760Z,1009.08
2022-10-16T11:13:09.752Z,1009.06
2022-10-16T11:14:09.740Z,1009.09
2022-10-16T11:15:09.748Z,1009.11
2022-10-16T11:16:09.720Z,1009.05
2022-10-16T11:17:09.706Z,1008.97
2022-10-16T11:18:09.705Z,1008.96
2022-10-16T11:19:09.686Z,1009.08
2022-10-16T11:20:09.679Z,1009.11
2022-10-16T11:21:09.674Z,1009.00
2022-10-16T11:22:09.653Z,1008.96
2022-10-16T11:23:09.645Z,1009.00
2022-10-16T11:24:09.632Z,1009.01
2022-10-16T11:25:09.621Z,1009.14
2022-10-16T11:26:09.613Z,1009.15
2022-10-16T11:27:09.603Z,1009.03
2022-10-16T11:28:09.597Z,1009.15
2022-10-16T11:29:09.675Z,1009.13
2022-10-16T11:30:09.571Z,1009.13
2022-10-16T11:31:09.577Z,1009.13
2022-10-16T11:32:09.552Z,1009.04
2022-10-16T11:33:09.539Z,1009.14
2022-10-16T11:34:09.530Z,1009.17
2022-10-16T11:35:09.521Z,1009.17
2022-10-16T11:36:09.511Z,1009.07
2022-10-16T11:37:09.499Z,1009.15
2022-10-16T11:38:09.487Z,1009.07
2022-10-16T11:39:09.477Z,1009.19
2022-10-16T11:40:09.467Z,1009.16
2022-10-16T11:41:09.454Z,1009.13
2022-10-16T11:42:09.447Z,1009.12
2022-10-16T11:44:09.425Z,1009.19
2022-10-16T11:45:09.415Z,1009.20
2022-10-16T11:46:10.041Z,1009.21
2022-10-16T11:47:33.793Z,1009.29
2022-10-16T11:48:09.383Z,1009.22
2022-10-16T11:49:09.373Z,1009.14
2022-10-16T11:50:09.359Z,1009.13
2022-10-16T11:51:09.353Z,1009.28
2022-10-16T11:52:09.385Z,1009.24
2022-10-16T11:53:09.325Z,1009.27
2022-10-16T11:54:09.321Z,1009.25
2022-10-16T11:55:09.307Z,1009.16
2022-10-16T11:56:09.300Z,1009.18
2022-10-16T11:57:09.279Z,1009.15
2022-10-16T11:58:09.271Z,1009.19
2022-10-16T11:59:09.260Z,1009.28
2022-10-16T12:00:09.249Z,1009.24
2022-10-16T12:01:09.244Z,1009.27
2022-10-16T12:02:09.223Z,1009.29
2022-10-16T12:03:09.282Z,1009.23
2022-10-16T12:04:09.204Z,1009.33
2022-10-16T12:05:09.196Z,1009.31
2022-10-16T12:06:09.185Z,1009.33
2022-10-16T12:07:09.171Z,1009.32
2022-10-16T12:08:09.158Z,1009.37
2022-10-16T12:09:09.148Z,1009.34